createdAt,value
2019-05-16T00:00:33.682Z,10.78
2019-05-16T00:01:33.695Z,10.61
2019-05-16T00:02:33.658Z,10.70
2019-05-16T00:03:33.646Z,10.67
2019-05-16T00:04:33.635Z,10.68
2019-05-16T00:05:33.644Z,10.66
2019-05-16T00:06:33.612Z,10.71
2019-05-16T00:07:33.603Z,10.66
2019-05-16T00:08:33.590Z,10.66
2019-05-16T00:09:33.580Z,10.63
2019-05-16T00:10:33.598Z,10.64
2019-05-16T00:11:33.558Z,10.70
2019-05-16T00:12:33.546Z,10.71
2019-05-16T00:13:33.538Z,10.78
2019-05-16T00:14:33.526Z,10.67
2019-05-16T00:15:33.512Z,10.61
2019-05-16T00:16:33.545Z,10.63
2019-05-16T00:17:33.491Z,10.63
2019-05-16T00:18:33.481Z,10.56
2019-05-16T00:19:33.465Z,10.60
2019-05-16T00:20:33.455Z,10.42
2019-05-16T00:21:33.442Z,10.51
2019-05-16T00:22:33.458Z,10.48
2019-05-16T00:23:33.423Z,10.45
2019-05-16T00:24:33.408Z,10.48
2019-05-16T00:25:33.398Z,10.41
2019-05-16T00:26:33.385Z,10.34
2019-05-16T00:27:33.373Z,10.41
2019-05-16T00:28:33.378Z,10.47
2019-05-16T00:29:33.350Z,10.42
2019-05-16T00:30:33.338Z,10.44
2019-05-16T00:31:33.327Z,10.45
2019-05-16T00:32:33.316Z,10.44
2019-05-16T00:33:33.335Z,10.42
2019-05-16T00:34:33.295Z,10.40
2019-05-16T00:35:33.285Z,10.42
2019-05-16T00:36:33.271Z,10.40
2019-05-16T00:37:33.262Z,10.44
2019-05-16T00:38:33.248Z,10.47
2019-05-16T00:39:33.271Z,10.42
2019-05-16T00:40:33.234Z,10.34
2019-05-16T00:41:33.215Z,10.32
2019-05-16T00:42:33.205Z,10.38
2019-05-16T00:43:33.192Z,10.29
2019-05-16T00:44:33.183Z,10.30
2019-05-16T00:45:33.189Z,10.25
2019-05-16T00:46:33.165Z,10.27
2019-05-16T00:47:33.147Z,10.33
2019-05-16T00:48:33.136Z,10.23
2019-05-16T00:49:33.126Z,10.22
2019-05-16T00:50:33.129Z,10.23
2019-05-16T00:51:33.106Z,10.22
2019-05-16T00:52:33.091Z,10.18
2019-05-16T00:53:33.079Z,10.26
2019-05-16T00:54:33.068Z,10.26
2019-05-16T00:55:33.072Z,10.25
2019-05-16T00:56:33.045Z,10.30
2019-05-16T00:57:33.036Z,10.33
2019-05-16T00:58:33.022Z,10.29
2019-05-16T00:59:33.011Z,10.27
2019-05-16T01:00:33.018Z,10.32
2019-05-16T01:01:32.987Z,10.22
2019-05-16T01:02:32.983Z,10.26
2019-05-16T01:03:32.964Z,10.22
2019-05-16T01:04:32.955Z,10.26
2019-05-16T01:05:32.957Z,10.23
2019-05-16T01:06:32.929Z,10.30
2019-05-16T01:07:32.920Z,10.17
2019-05-16T01:08:32.906Z,10.26
2019-05-16T01:09:32.894Z,10.27
2019-05-16T01:10:32.900Z,10.23
2019-05-16T01:11:32.909Z,10.20
2019-05-16T01:12:32.863Z,10.23
2019-05-16T01:13:32.852Z,10.18
2019-05-16T01:14:32.840Z,10.29
2019-05-16T01:15:32.844Z,10.32
2019-05-16T01:16:32.816Z,10.29
2019-05-16T01:17:32.805Z,10.33
2019-05-16T01:18:32.792Z,10.32
2019-05-16T01:19:32.783Z,10.23
2019-05-16T01:20:32.794Z,10.30
2019-05-16T01:21:32.762Z,10.30
2019-05-16T01:22:32.749Z,10.26
2019-05-16T01:23:32.736Z,10.30
2019-05-16T01:24:32.727Z,10.18
2019-05-16T01:25:32.735Z,10.27
2019-05-16T01:26:32.704Z,10.26
2019-05-16T01:27:32.692Z,10.32
2019-05-16T01:28:32.683Z,10.29
2019-05-16T01:29:32.680Z,10.34
2019-05-16T01:30:32.672Z,10.26
2019-05-16T01:31:32.646Z,10.25
2019-05-16T01:32:32.633Z,10.30
2019-05-16T01:33:32.623Z,10.30
2019-05-16T01:34:32.609Z,10.23
2019-05-16T01:35:32.624Z,10.22
2019-05-16T01:36:37.059Z,10.20
2019-05-16T01:37:33.575Z,10.26
2019-05-16T01:38:32.569Z,10.11
2019-05-16T01:39:32.552Z,10.25
2019-05-16T01:40:32.559Z,10.25
2019-05-16T01:41:32.529Z,10.15
2019-05-16T01:42:32.518Z,10.26
2019-05-16T01:43:32.506Z,10.17
2019-05-16T01:44:32.494Z,10.17
2019-05-16T01:45:32.505Z,10.11
2019-05-16T01:46:32.471Z,10.14
2019-05-16T01:47:32.461Z,10.09
2019-05-16T01:48:32.451Z,10.14
2019-05-16T01:49:32.437Z,10.12
2019-05-16T01:50:32.444Z,10.17
2019-05-16T01:51:32.417Z,10.07
2019-05-16T01:52:32.406Z,10.12
2019-05-16T01:53:32.394Z,10.09
2019-05-16T01:54:32.379Z,10.08
2019-05-16T01:55:32.385Z,10.18
2019-05-16T01:56:32.357Z,10.15
2019-05-16T01:57:32.348Z,10.14
2019-05-16T01:58:32.334Z,10.17
2019-05-16T01:59:32.322Z,10.17
2019-05-16T02:00:36.841Z,10.11
2019-05-16T02:01:33.300Z,10.15
2019-05-16T02:02:32.291Z,10.15
2019-05-16T02:03:32.277Z,10.09
2019-05-16T02:04:32.266Z,10.05
2019-05-16T02:05:32.272Z,10.08
2019-05-16T02:06:32.242Z,10.14
2019-05-16T02:07:32.230Z,10.09
2019-05-16T02:08:32.221Z,10.01
2019-05-16T02:09:32.211Z,10.07
2019-05-16T02:10:32.215Z,10.08
2019-05-16T02:11:32.188Z,10.02
2019-05-16T02:12:32.174Z,9.96
2019-05-16T02:13:32.163Z,10.01
2019-05-16T02:14:32.150Z,9.94
2019-05-16T02:15:32.155Z,9.97
2019-05-16T02:16:32.127Z,9.94
2019-05-16T02:17:32.115Z,9.96
2019-05-16T02:18:32.109Z,9.97
2019-05-16T02:19:32.092Z,9.97
2019-05-16T02:20:32.098Z,9.91
2019-05-16T02:21:32.070Z,9.93
2019-05-16T02:22:32.060Z,9.94
2019-05-16T02:23:32.048Z,9.94
2019-05-16T02:24:32.035Z,9.79
2019-05-16T02:25:32.040Z,9.84
2019-05-16T02:26:32.012Z,9.79
2019-05-16T02:27:32.018Z,9.87
2019-05-16T02:28:39.768Z,9.87
2019-05-16T02:29:32.981Z,9.84
2019-05-16T02:30:31.989Z,9.87
2019-05-16T02:31:31.957Z,9.84
2019-05-16T02:32:31.949Z,9.81
2019-05-16T02:33:31.969Z,9.86
2019-05-16T02:34:31.921Z,9.86
2019-05-16T02:35:31.941Z,9.76
2019-05-16T02:36:31.912Z,9.83
2019-05-16T02:37:34.691Z,9.83
2019-05-16T02:38:32.006Z,9.75
2019-05-16T02:39:31.866Z,9.79
2019-05-16T02:40:31.893Z,9.79
2019-05-16T02:41:31.848Z,9.83
2019-05-16T02:42:31.834Z,9.86
2019-05-16T02:43:31.818Z,9.89
2019-05-16T02:44:32.271Z,9.74
2019-05-16T02:45:32.664Z,9.86
2019-05-16T02:46:31.786Z,9.79
2019-05-16T02:47:35.065Z,9.78
2019-05-16T02:48:35.325Z,9.72
2019-05-16T02:49:34.189Z,9.74
2019-05-16T02:50:31.991Z,9.75
2019-05-16T02:51:31.795Z,9.68
2019-05-16T02:52:31.947Z,9.68
2019-05-16T02:53:31.710Z,9.72
2019-05-16T02:54:31.779Z,9.71
2019-05-16T02:55:31.698Z,9.74
2019-05-16T02:56:31.961Z,9.72
2019-05-16T02:57:31.959Z,9.66
2019-05-16T02:58:31.649Z,9.64
2019-05-16T02:59:31.636Z,9.71
2019-05-16T03:00:31.678Z,9.74
2019-05-16T03:01:32.332Z,9.74
2019-05-16T03:02:32.598Z,9.72
2019-05-16T03:03:31.892Z,9.66
2019-05-16T03:04:32.336Z,9.64
2019-05-16T03:05:31.582Z,9.60
2019-05-16T03:06:32.206Z,9.61
2019-05-16T03:07:40.582Z,9.60
2019-05-16T03:08:32.536Z,9.58
2019-05-16T03:09:31.521Z,9.57
2019-05-16T03:10:31.527Z,9.58
2019-05-16T03:11:31.590Z,9.64
2019-05-16T03:12:31.484Z,9.56
2019-05-16T03:13:31.474Z,9.56
2019-05-16T03:14:31.742Z,9.58
2019-05-16T03:15:31.519Z,9.57
2019-05-16T03:16:31.858Z,9.54
2019-05-16T03:17:31.839Z,9.47
2019-05-16T03:18:31.416Z,9.38
2019-05-16T03:19:31.405Z,9.40
2019-05-16T03:20:31.588Z,9.47
2019-05-16T03:21:31.392Z,9.39
2019-05-16T03:22:31.802Z,9.43
2019-05-16T03:23:31.359Z,9.38
2019-05-16T03:24:31.347Z,9.42
2019-05-16T03:25:31.354Z,9.42
2019-05-16T03:26:31.641Z,9.46
2019-05-16T03:27:31.313Z,9.33
2019-05-16T03:28:31.302Z,9.50
2019-05-16T03:29:31.291Z,9.46
2019-05-16T03:30:35.019Z,9.47
2019-05-16T03:31:34.077Z,9.43
2019-05-16T03:32:33.869Z,9.36
2019-05-16T03:33:40.243Z,9.31
2019-05-16T03:34:34.460Z,9.35
2019-05-16T03:35:34.236Z,9.28
2019-05-16T03:36:34.380Z,9.31
2019-05-16T03:37:31.197Z,9.29
2019-05-16T03:38:31.197Z,9.28
2019-05-16T03:39:31.481Z,9.24
2019-05-16T03:40:31.564Z,9.24
2019-05-16T03:41:31.154Z,9.31
2019-05-16T03:42:31.290Z,9.10
2019-05-16T03:43:31.164Z,9.18
2019-05-16T03:44:31.858Z,9.14
2019-05-16T03:45:31.811Z,9.24
2019-05-16T03:46:31.114Z,9.14
2019-05-16T03:47:31.511Z,9.21
2019-05-16T03:48:31.668Z,9.24
2019-05-16T03:49:31.445Z,9.23
2019-05-16T03:50:31.071Z,9.28
2019-05-16T03:51:31.136Z,9.18
2019-05-16T03:52:31.243Z,9.24
2019-05-16T03:53:31.818Z,9.26
2019-05-16T03:54:31.592Z,9.29
2019-05-16T03:55:32.613Z,9.23
2019-05-16T03:56:30.984Z,9.23
2019-05-16T03:57:30.970Z,9.20
2019-05-16T03:58:31.225Z,9.24
2019-05-16T03:59:31.631Z,9.18
2019-05-16T04:00:31.695Z,9.14
2019-05-16T04:01:31.484Z,9.04
2019-05-16T04:02:31.148Z,9.01
2019-05-16T04:03:33.267Z,9.04
2019-05-16T04:04:31.041Z,9.05
2019-05-16T04:05:31.793Z,8.99
2019-05-16T04:06:31.239Z,9.02
2019-05-16T04:07:31.776Z,9.04
2019-05-16T04:08:31.288Z,9.05
2019-05-16T04:09:31.552Z,9.08
2019-05-16T04:10:31.094Z,9.17
2019-05-16T04:11:32.185Z,9.13
2019-05-16T04:12:31.069Z,9.17
2019-05-16T04:13:31.550Z,9.13
2019-05-16T04:14:31.087Z,9.14
2019-05-16T04:15:31.229Z,9.11
2019-05-16T04:16:31.534Z,9.14
2019-05-16T04:17:31.670Z,9.13
2019-05-16T04:18:31.784Z,9.13
2019-05-16T04:19:31.529Z,8.96
2019-05-16T04:20:30.720Z,8.95
2019-05-16T04:21:32.319Z,9.02
2019-05-16T04:22:31.744Z,9.01
2019-05-16T04:23:31.489Z,9.01
2019-05-16T04:24:31.693Z,9.04
2019-05-16T04:25:31.165Z,8.96
2019-05-16T04:26:32.318Z,8.94
2019-05-16T04:27:31.082Z,9.01
2019-05-16T04:28:31.765Z,8.91
2019-05-16T04:29:31.626Z,8.95
2019-05-16T04:30:31.450Z,8.89
2019-05-16T04:31:31.060Z,8.92
2019-05-16T04:32:31.425Z,8.92
2019-05-16T04:33:31.153Z,8.79
2019-05-16T04:34:31.226Z,8.80
2019-05-16T04:35:31.692Z,8.77
2019-05-16T04:36:32.700Z,8.86
2019-05-16T04:37:31.366Z,8.94
2019-05-16T04:38:40.258Z,8.86
2019-05-16T04:39:32.139Z,8.95
2019-05-16T04:40:31.146Z,8.86
2019-05-16T04:41:31.343Z,8.95
2019-05-16T04:42:31.205Z,8.94
2019-05-16T04:43:31.642Z,8.99
2019-05-16T04:44:31.163Z,8.94
2019-05-16T04:45:31.765Z,8.94
2019-05-16T04:46:31.471Z,8.89
2019-05-16T04:47:31.650Z,8.84
2019-05-16T04:48:31.044Z,8.83
2019-05-16T04:49:31.937Z,8.80
2019-05-16T04:50:31.221Z,8.79
2019-05-16T04:51:30.766Z,8.79
2019-05-16T04:52:30.760Z,8.80
2019-05-16T04:53:31.615Z,8.86
2019-05-16T04:54:30.971Z,8.80
2019-05-16T04:55:31.667Z,8.76
2019-05-16T04:56:30.946Z,8.76
2019-05-16T04:57:31.215Z,8.79
2019-05-16T04:58:31.628Z,8.77
2019-05-16T04:59:31.167Z,8.79
2019-05-16T05:00:31.868Z,8.76
2019-05-16T05:01:30.877Z,8.80
2019-05-16T05:02:31.054Z,8.81
2019-05-16T05:03:31.650Z,8.81
2019-05-16T05:04:30.755Z,8.76
2019-05-16T05:05:33.394Z,8.80
2019-05-16T05:06:31.290Z,8.77
2019-05-16T05:07:31.190Z,8.81
2019-05-16T05:08:32.322Z,8.76
2019-05-16T05:09:31.796Z,8.83
2019-05-16T05:10:31.220Z,8.83
2019-05-16T05:11:30.734Z,8.81
2019-05-16T05:12:31.527Z,8.79
2019-05-16T05:13:30.810Z,8.81
2019-05-16T05:14:30.766Z,8.80
2019-05-16T05:15:30.669Z,8.77
2019-05-16T05:16:30.634Z,8.77
2019-05-16T05:17:30.632Z,8.80
2019-05-16T05:18:30.436Z,8.79
2019-05-16T05:19:30.685Z,8.84
2019-05-16T05:20:30.461Z,8.83
2019-05-16T05:21:31.382Z,8.83
2019-05-16T05:22:30.478Z,8.79
2019-05-16T05:23:30.285Z,8.84
2019-05-16T05:24:30.321Z,8.84
2019-05-16T05:25:30.885Z,8.81
2019-05-16T05:26:30.584Z,8.84
2019-05-16T05:27:30.403Z,8.77
2019-05-16T05:28:30.159Z,8.81
2019-05-16T05:29:30.702Z,8.79
2019-05-16T05:30:30.412Z,8.80
2019-05-16T05:31:35.112Z,8.79
2019-05-16T05:32:30.884Z,8.68
2019-05-16T05:33:30.371Z,8.79
2019-05-16T05:34:30.483Z,8.74
2019-05-16T05:35:31.114Z,8.73
2019-05-16T05:36:30.131Z,8.71
2019-05-16T05:37:29.976Z,8.68
2019-05-16T05:38:31.080Z,8.68
2019-05-16T05:39:30.342Z,8.68
2019-05-16T05:40:29.821Z,8.71
2019-05-16T05:41:30.300Z,8.68
2019-05-16T05:42:30.629Z,8.62
2019-05-16T05:43:30.541Z,8.71
2019-05-16T05:44:30.715Z,8.68
2019-05-16T05:45:30.631Z,8.66
2019-05-16T05:46:31.678Z,8.68
2019-05-16T05:47:30.756Z,8.79
2019-05-16T05:48:30.849Z,8.86
2019-05-16T05:49:30.253Z,8.80
2019-05-16T05:50:30.693Z,8.92
2019-05-16T05:51:30.168Z,8.95
2019-05-16T05:52:30.457Z,8.95
2019-05-16T05:53:30.211Z,8.92
2019-05-16T05:54:30.826Z,8.94
2019-05-16T05:55:31.345Z,8.89
2019-05-16T05:56:30.466Z,8.89
2019-05-16T05:57:30.169Z,8.94
2019-05-16T05:58:30.741Z,8.92
2019-05-16T05:59:30.601Z,8.95
2019-05-16T06:00:30.401Z,9.02
2019-05-16T06:01:31.589Z,9.02
2019-05-16T06:02:30.970Z,9.02
2019-05-16T06:03:32.903Z,9.08
2019-05-16T06:04:30.520Z,9.11
2019-05-16T06:05:30.592Z,9.14
2019-05-16T06:06:30.444Z,9.13
2019-05-16T06:07:30.002Z,9.01
2019-05-16T06:08:30.599Z,9.05
2019-05-16T06:09:32.884Z,9.04
2019-05-16T06:10:30.409Z,9.01
2019-05-16T06:11:30.735Z,9.01
2019-05-16T06:12:30.586Z,8.99
2019-05-16T06:13:31.091Z,8.98
2019-05-16T06:14:30.678Z,8.95
2019-05-16T06:15:30.604Z,8.96
2019-05-16T06:16:30.793Z,9.01
2019-05-16T06:17:30.725Z,8.98
2019-05-16T06:18:30.573Z,9.04
2019-05-16T06:19:29.815Z,8.96
2019-05-16T06:20:30.823Z,8.95
2019-05-16T06:21:33.570Z,8.98
2019-05-16T06:22:29.815Z,8.99
2019-05-16T06:23:31.091Z,8.98
2019-05-16T06:24:30.509Z,8.96
2019-05-16T06:25:31.456Z,8.94
2019-05-16T06:26:30.304Z,8.96
2019-05-16T06:27:30.309Z,8.94
2019-05-16T06:28:30.841Z,8.87
2019-05-16T06:29:31.005Z,8.95
2019-05-16T06:30:30.495Z,8.80
2019-05-16T06:31:31.279Z,8.84
2019-05-16T06:32:30.381Z,8.84
2019-05-16T06:33:30.539Z,8.77
2019-05-16T06:34:30.147Z,8.89
2019-05-16T06:35:29.899Z,9.01
2019-05-16T06:36:30.573Z,9.05
2019-05-16T06:37:30.979Z,9.08
2019-05-16T06:38:29.907Z,9.13
2019-05-16T06:39:41.200Z,9.11
2019-05-16T06:40:30.131Z,9.11
2019-05-16T06:41:30.397Z,9.10
2019-05-16T06:42:30.115Z,9.15
2019-05-16T06:43:30.137Z,9.17
2019-05-16T06:44:30.824Z,9.15
2019-05-16T06:45:29.077Z,9.10
2019-05-16T06:46:30.700Z,9.11
2019-05-16T06:47:30.472Z,9.14
2019-05-16T06:48:30.348Z,9.14
2019-05-16T06:49:30.405Z,9.11
2019-05-16T06:50:29.771Z,9.18
2019-05-16T06:51:30.536Z,9.11
2019-05-16T06:52:30.170Z,9.14
2019-05-16T06:53:29.935Z,9.02
2019-05-16T06:54:29.893Z,9.02
2019-05-16T06:55:29.631Z,8.96
2019-05-16T06:56:30.915Z,8.98
2019-05-16T06:57:30.271Z,8.99
2019-05-16T06:58:30.248Z,9.10
2019-05-16T06:59:29.802Z,9.11
2019-05-16T07:00:30.208Z,9.10
2019-05-16T07:01:29.758Z,9.17
2019-05-16T07:02:33.661Z,9.28
2019-05-16T07:03:30.855Z,9.21
2019-05-16T07:04:30.455Z,9.29
2019-05-16T07:05:29.982Z,9.29
2019-05-16T07:06:50.322Z,9.36
2019-05-16T07:07:30.806Z,9.33
2019-05-16T07:08:31.033Z,9.40
2019-05-16T07:09:30.138Z,9.38
2019-05-16T07:10:30.637Z,9.36
2019-05-16T07:11:30.638Z,9.36
2019-05-16T07:12:31.508Z,9.33
2019-05-16T07:13:30.338Z,9.29
2019-05-16T07:14:31.251Z,9.32
2019-05-16T07:15:29.807Z,9.28
2019-05-16T07:16:29.956Z,9.26
2019-05-16T07:17:30.591Z,9.20
2019-05-16T07:18:31.002Z,9.23
2019-05-16T07:19:30.132Z,9.26
2019-05-16T07:20:30.164Z,9.23
2019-05-16T07:21:31.079Z,9.28
2019-05-16T07:22:31.203Z,9.18
2019-05-16T07:23:29.810Z,9.26
2019-05-16T07:24:30.587Z,9.26
2019-05-16T07:25:30.085Z,9.26
2019-05-16T07:26:30.821Z,9.24
2019-05-16T07:27:30.914Z,9.11
2019-05-16T07:28:30.040Z,9.20
2019-05-16T07:29:30.743Z,9.31
2019-05-16T07:30:30.307Z,9.18
2019-05-16T07:31:30.057Z,9.26
2019-05-16T07:32:30.213Z,9.28
2019-05-16T07:33:30.948Z,9.21
2019-05-16T07:34:30.962Z,9.28
2019-05-16T07:35:30.686Z,9.28
2019-05-16T07:36:31.135Z,9.29
2019-05-16T07:37:28.464Z,9.33
2019-05-16T07:38:30.653Z,9.33
2019-05-16T07:39:30.519Z,9.32
2019-05-16T07:40:30.668Z,9.36
2019-05-16T07:41:30.884Z,9.40
2019-05-16T07:42:30.612Z,9.40
2019-05-16T07:43:30.727Z,9.46
2019-05-16T07:44:30.912Z,9.38
2019-05-16T07:45:30.736Z,9.42
2019-05-16T07:46:31.363Z,9.38
2019-05-16T07:47:30.811Z,9.29
2019-05-16T07:48:31.239Z,9.28
2019-05-16T07:49:30.328Z,9.31
2019-05-16T07:50:30.061Z,9.21
2019-05-16T07:51:30.851Z,9.20
2019-05-16T07:52:35.310Z,9.28
2019-05-16T07:53:32.730Z,9.32
2019-05-16T07:54:34.083Z,9.29
2019-05-16T07:55:30.846Z,9.24
2019-05-16T07:56:30.692Z,9.28
2019-05-16T07:57:30.466Z,9.17
2019-05-16T07:58:31.055Z,9.23
2019-05-16T07:59:29.918Z,9.28
2019-05-16T08:00:47.513Z,9.15
2019-05-16T08:01:30.753Z,9.21
2019-05-16T08:02:31.102Z,9.33
2019-05-16T08:03:30.384Z,9.39
2019-05-16T08:04:30.465Z,9.38
2019-05-16T08:05:29.874Z,9.31
2019-05-16T08:06:33.755Z,9.39
2019-05-16T08:07:33.197Z,9.36
2019-05-16T08:08:31.364Z,9.40
2019-05-16T08:09:30.450Z,9.47
2019-05-16T08:10:37.833Z,9.50
2019-05-16T08:11:30.502Z,9.50
2019-05-16T08:12:32.834Z,9.50
2019-05-16T08:13:30.873Z,9.50
2019-05-16T08:14:30.286Z,9.51
2019-05-16T08:15:30.386Z,9.56
2019-05-16T08:16:30.579Z,9.51
2019-05-16T08:17:28.051Z,9.57
2019-05-16T08:18:30.244Z,9.58
2019-05-16T08:19:30.024Z,9.69
2019-05-16T08:20:31.060Z,9.60
2019-05-16T08:21:30.694Z,9.56
2019-05-16T08:22:30.527Z,9.64
2019-05-16T08:23:30.417Z,9.58
2019-05-16T08:24:30.502Z,9.57
2019-05-16T08:25:31.226Z,9.56
2019-05-16T08:26:31.490Z,9.50
2019-05-16T08:27:30.468Z,9.47
2019-05-16T08:28:30.533Z,9.42
2019-05-16T08:29:31.056Z,9.40
2019-05-16T08:30:31.172Z,9.35
2019-05-16T08:31:27.851Z,9.38
2019-05-16T08:32:30.885Z,9.35
2019-05-16T08:33:27.831Z,9.39
2019-05-16T08:34:27.815Z,9.42
2019-05-16T08:35:27.821Z,9.46
2019-05-16T08:36:27.796Z,9.38
2019-05-16T08:37:38.604Z,9.48
2019-05-16T08:38:30.829Z,9.36
2019-05-16T08:39:30.138Z,9.40
2019-05-16T08:40:27.765Z,9.46
2019-05-16T08:41:27.735Z,9.48
2019-05-16T08:42:27.733Z,9.46
2019-05-16T08:43:27.714Z,9.42
2019-05-16T08:44:27.704Z,9.47
2019-05-16T08:45:27.710Z,9.43
2019-05-16T08:46:27.681Z,9.46
2019-05-16T08:47:27.668Z,9.43
2019-05-16T08:48:27.658Z,9.39
2019-05-16T08:49:30.532Z,9.43
2019-05-16T08:50:27.661Z,9.39
2019-05-16T08:51:27.623Z,9.40
2019-05-16T08:52:31.236Z,9.43
2019-05-16T08:53:31.388Z,9.47
2019-05-16T08:54:31.573Z,9.50
2019-05-16T08:55:31.145Z,9.58
2019-05-16T08:56:31.473Z,9.65
2019-05-16T08:58:32.937Z,9.65
2019-05-16T08:59:27.533Z,9.66
2019-05-16T09:00:27.538Z,9.66
2019-05-16T09:01:27.507Z,9.65
2019-05-16T09:02:35.525Z,9.66
2019-05-16T09:03:32.071Z,9.66
2019-05-16T09:04:33.340Z,9.72
2019-05-16T09:05:31.324Z,9.69
2019-05-16T09:06:31.614Z,9.72
2019-05-16T09:07:31.576Z,9.71
2019-05-16T09:08:27.430Z,9.64
2019-05-16T09:09:41.058Z,9.69
2019-05-16T09:10:35.264Z,9.51
2019-05-16T09:10:57.031Z,9.60
2019-05-16T09:11:38.902Z,9.69
2019-05-16T09:12:28.383Z,9.61
2019-05-16T09:13:28.003Z,9.75
2019-05-16T09:14:29.712Z,9.71
2019-05-16T09:15:28.347Z,9.76
2019-05-16T09:16:27.688Z,9.65
2019-05-16T09:17:27.851Z,9.74
2019-05-16T09:18:28.937Z,9.64
2019-05-16T09:19:27.652Z,9.71
2019-05-16T09:20:28.164Z,9.71
2019-05-16T09:21:27.698Z,9.66
2019-05-16T09:22:28.218Z,9.68
2019-05-16T09:23:27.254Z,9.65
2019-05-16T09:24:27.373Z,9.71
2019-05-16T09:25:27.570Z,9.78
2019-05-16T09:26:27.858Z,9.81
2019-05-16T09:27:27.470Z,9.83
2019-05-16T09:28:28.280Z,9.81
2019-05-16T09:29:27.448Z,9.83
2019-05-16T09:30:27.594Z,9.79
2019-05-16T09:31:30.157Z,9.78
2019-05-16T09:32:28.013Z,9.93
2019-05-16T09:33:27.370Z,9.78
2019-05-16T09:34:28.353Z,9.91
2019-05-16T09:35:28.158Z,9.86
2019-05-16T09:36:28.034Z,9.86
2019-05-16T09:37:27.096Z,9.96
2019-05-16T09:38:30.381Z,9.99
2019-05-16T09:39:27.857Z,10.01
2019-05-16T09:40:27.923Z,10.02
2019-05-16T09:41:37.571Z,9.97
2019-05-16T09:42:28.110Z,10.02
2019-05-16T09:43:28.148Z,10.01
2019-05-16T09:44:27.400Z,10.02
2019-05-16T09:45:27.380Z,9.99
2019-05-16T09:46:27.676Z,10.01
2019-05-16T09:47:28.353Z,10.05
2019-05-16T09:48:28.039Z,10.05
2019-05-16T09:49:26.965Z,9.93
2019-05-16T09:50:26.949Z,9.96
2019-05-16T09:51:27.355Z,9.90
2019-05-16T09:52:27.457Z,9.90
2019-05-16T09:53:27.619Z,9.90
2019-05-16T09:54:27.478Z,9.99
2019-05-16T09:55:26.986Z,10.01
2019-05-16T09:56:27.147Z,10.08
2019-05-16T09:57:27.830Z,10.15
2019-05-16T09:58:27.860Z,10.25
2019-05-16T09:59:26.843Z,10.20
2019-05-16T10:00:27.099Z,10.27
2019-05-16T10:01:27.638Z,10.29
2019-05-16T10:02:27.428Z,10.38
2019-05-16T10:03:27.229Z,10.36
2019-05-16T10:04:26.921Z,10.27
2019-05-16T10:05:26.996Z,10.40
2019-05-16T10:06:27.613Z,10.40
2019-05-16T10:07:28.327Z,10.41
2019-05-16T10:08:27.001Z,10.45
2019-05-16T10:09:38.552Z,10.44
2019-05-16T10:10:27.718Z,10.42
2019-05-16T10:11:31.269Z,10.47
2019-05-16T10:12:27.695Z,10.41
2019-05-16T10:13:27.765Z,10.36
2019-05-16T10:14:26.962Z,10.42
2019-05-16T10:15:27.079Z,10.47
2019-05-16T10:16:27.514Z,10.52
2019-05-16T10:17:27.287Z,10.40
2019-05-16T10:18:27.799Z,10.41
2019-05-16T10:19:27.556Z,10.51
2019-05-16T10:20:27.347Z,10.55
2019-05-16T10:21:27.247Z,10.63
2019-05-16T10:22:27.285Z,10.53
2019-05-16T10:23:28.401Z,10.61
2019-05-16T10:24:26.971Z,10.53
2019-05-16T10:25:27.670Z,10.60
2019-05-16T10:26:27.711Z,10.56
2019-05-16T10:27:26.617Z,10.55
2019-05-16T10:28:27.546Z,10.60
2019-05-16T10:29:27.392Z,10.59
2019-05-16T10:30:26.933Z,10.56
2019-05-16T10:31:38.572Z,10.63
2019-05-16T10:32:27.526Z,10.60
2019-05-16T10:33:27.498Z,10.59
2019-05-16T10:34:26.742Z,10.52
2019-05-16T10:35:29.182Z,10.61
2019-05-16T10:36:28.130Z,10.60
2019-05-16T10:37:26.985Z,10.52
2019-05-16T10:38:28.377Z,10.51
2019-05-16T10:39:26.910Z,10.47
2019-05-16T10:40:27.419Z,10.38
2019-05-16T10:41:26.401Z,10.40
2019-05-16T10:42:29.072Z,10.38
2019-05-16T10:43:26.625Z,10.36
2019-05-16T10:44:28.201Z,10.40
2019-05-16T10:45:27.302Z,10.29
2019-05-16T10:46:26.958Z,10.30
2019-05-16T10:47:30.708Z,10.36
2019-05-16T10:48:26.944Z,10.25
2019-05-16T10:49:36.861Z,10.22
2019-05-16T10:50:27.696Z,10.26
2019-05-16T10:51:26.975Z,10.27
2019-05-16T10:52:26.911Z,10.26
2019-05-16T10:53:55.663Z,10.27
2019-05-16T10:54:27.736Z,10.32
2019-05-16T10:55:27.788Z,10.41
2019-05-16T10:56:26.195Z,10.29
2019-05-16T10:57:29.376Z,10.40
2019-05-16T10:58:36.514Z,10.41
2019-05-16T10:59:54.560Z,10.34
2019-05-16T11:00:51.406Z,10.27
2019-05-16T11:01:30.633Z,10.34
2019-05-16T11:02:27.568Z,10.33
2019-05-16T11:03:27.698Z,10.26
2019-05-16T11:04:37.655Z,10.26
2019-05-16T11:05:33.722Z,10.22
2019-05-16T11:06:29.445Z,10.23
2019-05-16T11:07:29.411Z,10.32
2019-05-16T11:08:26.088Z,10.26
2019-05-16T11:09:26.047Z,10.27
2019-05-16T11:10:26.868Z,10.23
2019-05-16T11:11:27.282Z,10.29
2019-05-16T11:12:45.371Z,10.27
2019-05-16T11:13:27.972Z,10.30
2019-05-16T11:14:28.137Z,10.18
2019-05-16T11:15:27.776Z,10.30
2019-05-16T11:16:27.502Z,10.29
2019-05-16T11:17:27.881Z,10.38
2019-05-16T11:18:27.207Z,10.27
2019-05-16T11:19:28.214Z,10.29
2019-05-16T11:20:26.827Z,10.30
2019-05-16T11:21:26.846Z,10.25
2019-05-16T11:22:29.472Z,10.27
2019-05-16T11:23:30.759Z,10.30
2019-05-16T11:24:29.240Z,10.30
2019-05-16T11:25:31.868Z,10.30
2019-05-16T11:26:27.643Z,10.26
2019-05-16T11:27:25.840Z,10.27
2019-05-16T11:28:25.839Z,10.26
2019-05-16T11:29:25.837Z,10.25
2019-05-16T11:30:28.095Z,10.18
2019-05-16T11:31:26.694Z,10.20
2019-05-16T11:32:27.008Z,10.38
2019-05-16T11:33:28.202Z,10.36
2019-05-16T11:34:26.633Z,10.33
2019-05-16T11:35:27.308Z,10.40
2019-05-16T11:36:26.799Z,10.40
2019-05-16T11:37:27.930Z,10.44
2019-05-16T11:38:25.715Z,10.40
2019-05-16T11:39:25.704Z,10.36
2019-05-16T11:40:25.712Z,10.41
2019-05-16T11:41:27.566Z,10.40
2019-05-16T11:42:28.029Z,10.40
2019-05-16T11:43:27.689Z,10.47
2019-05-16T11:44:28.379Z,10.51
2019-05-16T11:45:27.162Z,10.40
2019-05-16T11:46:28.065Z,10.33
2019-05-16T11:47:27.241Z,10.34
2019-05-16T11:48:29.076Z,10.32
2019-05-16T11:49:27.610Z,10.33
2019-05-16T11:50:28.069Z,10.32
2019-05-16T11:51:27.211Z,10.38
2019-05-16T11:52:25.553Z,10.36
2019-05-16T11:53:28.293Z,10.36
2019-05-16T11:54:26.575Z,10.47
2019-05-16T11:55:32.249Z,10.44
2019-05-16T11:56:26.524Z,10.45
2019-05-16T11:57:25.501Z,10.48
2019-05-16T11:58:26.621Z,10.47
2019-05-16T11:59:25.474Z,10.47
2019-05-16T12:00:30.127Z,10.53
2019-05-16T12:01:27.535Z,10.55
2019-05-16T12:02:27.938Z,10.55
2019-05-16T12:03:27.890Z,10.61
2019-05-16T12:04:27.905Z,10.52
2019-05-16T12:05:27.070Z,10.55
2019-05-16T12:06:26.838Z,10.59
2019-05-16T12:07:32.370Z,10.56
2019-05-16T12:08:26.593Z,10.70
2019-05-16T12:09:32.107Z,10.73
2019-05-16T12:10:27.020Z,10.68
2019-05-16T12:11:27.463Z,10.70
2019-05-16T12:12:27.179Z,10.73
2019-05-16T12:13:31.857Z,10.85
2019-05-16T12:14:27.254Z,10.78
2019-05-16T12:15:27.365Z,10.78
2019-05-16T12:16:27.601Z,10.76
2019-05-16T12:17:28.026Z,10.85
2019-05-16T12:18:26.621Z,10.85
2019-05-16T12:19:33.417Z,10.74
2019-05-16T12:20:27.387Z,10.73
2019-05-16T12:21:27.297Z,10.70
2019-05-16T12:22:26.771Z,10.79
2019-05-16T12:23:27.576Z,10.74
2019-05-16T12:24:33.148Z,10.68
2019-05-16T12:25:27.292Z,10.70
2019-05-16T12:26:27.962Z,10.73
2019-05-16T12:27:31.735Z,10.74
2019-05-16T12:28:27.280Z,10.71
2019-05-16T12:29:27.954Z,10.74
2019-05-16T12:30:25.120Z,10.74
2019-05-16T12:31:25.110Z,10.68
2019-05-16T12:32:27.536Z,10.64
2019-05-16T12:33:27.397Z,10.63
2019-05-16T12:34:25.094Z,10.63
2019-05-16T12:35:27.530Z,10.66
2019-05-16T12:36:26.775Z,10.71
2019-05-16T12:37:27.431Z,10.64
2019-05-16T12:38:27.608Z,10.68
2019-05-16T12:39:26.865Z,10.74
2019-05-16T12:40:26.839Z,10.82
2019-05-16T12:41:28.534Z,10.84
2019-05-16T12:42:26.992Z,10.85
2019-05-16T12:43:39.891Z,10.81
2019-05-16T12:44:26.900Z,10.84
2019-05-16T12:45:27.576Z,10.81
2019-05-16T12:46:26.668Z,10.84
2019-05-16T12:47:24.929Z,10.81
2019-05-16T12:48:24.921Z,10.86
2019-05-16T12:49:24.908Z,10.88
2019-05-16T12:50:28.186Z,10.81
2019-05-16T12:51:26.483Z,10.82
2019-05-16T12:52:27.097Z,10.82
2019-05-16T12:53:31.797Z,10.89
2019-05-16T12:54:27.626Z,10.88
2019-05-16T12:55:27.002Z,10.82
2019-05-16T12:56:27.101Z,10.88
2019-05-16T12:57:27.923Z,10.89
2019-05-16T12:58:37.196Z,10.82
2019-05-16T12:59:26.782Z,10.82
2019-05-16T13:00:27.482Z,10.81
2019-05-16T13:01:30.474Z,10.79
2019-05-16T13:02:27.303Z,10.73
2019-05-16T13:03:27.525Z,10.76
2019-05-16T13:04:27.709Z,10.70
2019-05-16T13:05:26.851Z,10.71
2019-05-16T13:06:24.716Z,10.78
2019-05-16T13:07:26.834Z,10.82